메인 페이지
METAR-TAF:

METAR-TAF

공항 :

Billund, 덴마크

위도: 55-44N, 경도: 009-10E, 고도: 75m

현재 날씨관측

예보는 54분 전, 08:50시(UTC)에 발표되었습니다.
8kt남서풍과 북서풍을 오가는
온도 16°C
습도 63%
기압 1021 hPa
시정 10km 이상

METAR: EKBI 200850Z AUTO 28008KT 230V310 9999 NCD 16/09 Q1021

시각: 11:44 (09:44 UTC)

예보

예보는 4 시간 43분 전, 05:01시(UTC)에 발표되었습니다.
예보 대상 시간: 20일 06시부터 21일 06시까지 (UTC)
8kt
시정 10km 이상
고도 2000ft 상공 구름 조금
확률 40%
20일 22시부터 21일 06시까지 (UTC)
시정: 2000m
고도 300ft 상공 구름 많음
곳곳에 안개, 박무,

TAF: EKBI 200501Z 2006/2106 27008KT 9999 FEW020 PROB40 2022/2106 2000 BCFG BR BKN003

4,000개 이상의 공항 관측 자료 및 예보 (METAR 및 TAF 보고).

지도상에서 검색 가능한 기상관측소가 노란 점과 빨간 점으로 표시되어 있습니다.

기상관측소 명을 보려면 표시 위로 마우스를 이동하세요.

날씨 관측과 예보를 보려면 클릭하세요.

지도 변경 : 확대하려면 엑스 표시가 있는 녹색 버튼, 축소하려면 빼기 표시가 있는 녹색 버튼, 다음 페이지의 지도를 보려면 녹색 화살표를 클릭하세요.


METAR-TAF: